<?xml version="1.0" encoding="UTF-8" standalone="no" ?>
<gpx xmlns="http://www.topografix.com/GPX/1/1" xmlns:xsi="http://www.w3.org/2001/XMLSchema-instance" xsi:schemaLocation="http://www.topografix.com/GPX/1/1 http://www.topografix.com/GPX/1/1/gpx.xsd" version="1.1" creator="VisuGPX - https://www.visugpx.com">
  <metadata>
    <name>13214041-CASSIS 1</name>
  </metadata>
  <trk>
    <name><![CDATA[13214041-CASSIS 1]]></name>
    <trkseg>
      <trkpt lat="43.20633" lon="5.51909">
        <ele>24</ele>
        <time>2021-06-10T06:45:45Z</time>
      </trkpt>
      <trkpt lat="43.20636" lon="5.51899">
        <ele>24</ele>
        <time>2021-06-10T06:45:56Z</time>
      </trkpt>
      <trkpt lat="43.20644" lon="5.51867">
        <ele>24</ele>
        <time>2021-06-10T06:46:28Z</time>
      </trkpt>
      <trkpt lat="43.20649" lon="5.51856">
        <ele>24</ele>
        <time>2021-06-10T06:46:41Z</time>
      </trkpt>
      <trkpt lat="43.20657" lon="5.51851">
        <ele>25</ele>
        <time>2021-06-10T06:46:53Z</time>
      </trkpt>
      <trkpt lat="43.20663" lon="5.5185">
        <ele>25</ele>
        <time>2021-06-10T06:47:01Z</time>
      </trkpt>
      <trkpt lat="43.20677" lon="5.51861">
        <ele>25</ele>
        <time>2021-06-10T06:47:22Z</time>
      </trkpt>
      <trkpt lat="43.20753" lon="5.51946">
        <ele>26</ele>
        <time>2021-06-10T06:49:33Z</time>
      </trkpt>
      <trkpt lat="43.20787" lon="5.51981">
        <ele>25</ele>
        <time>2021-06-10T06:50:30Z</time>
      </trkpt>
      <trkpt lat="43.20881" lon="5.52087">
        <ele>39</ele>
        <time>2021-06-10T06:53:12Z</time>
      </trkpt>
      <trkpt lat="43.20927" lon="5.52129">
        <ele>43</ele>
        <time>2021-06-10T06:54:26Z</time>
      </trkpt>
      <trkpt lat="43.20943" lon="5.52144">
        <ele>42</ele>
        <time>2021-06-10T06:54:52Z</time>
      </trkpt>
      <trkpt lat="43.20956" lon="5.5216">
        <ele>43</ele>
        <time>2021-06-10T06:55:15Z</time>
      </trkpt>
      <trkpt lat="43.21041" lon="5.52312">
        <ele>49</ele>
        <time>2021-06-10T06:58:22Z</time>
      </trkpt>
      <trkpt lat="43.21045" lon="5.52312">
        <ele>49</ele>
        <time>2021-06-10T06:58:27Z</time>
      </trkpt>
      <trkpt lat="43.21072" lon="5.5229">
        <ele>45</ele>
        <time>2021-06-10T06:59:09Z</time>
      </trkpt>
      <trkpt lat="43.21077" lon="5.52293">
        <ele>46</ele>
        <time>2021-06-10T06:59:16Z</time>
      </trkpt>
      <trkpt lat="43.21086" lon="5.52309">
        <ele>47</ele>
        <time>2021-06-10T06:59:36Z</time>
      </trkpt>
      <trkpt lat="43.2109" lon="5.52311">
        <ele>48</ele>
        <time>2021-06-10T06:59:41Z</time>
      </trkpt>
      <trkpt lat="43.21094" lon="5.5231">
        <ele>47</ele>
        <time>2021-06-10T06:59:47Z</time>
      </trkpt>
      <trkpt lat="43.21097" lon="5.52297">
        <ele>45</ele>
        <time>2021-06-10T07:00:00Z</time>
      </trkpt>
      <trkpt lat="43.21104" lon="5.52283">
        <ele>43</ele>
        <time>2021-06-10T07:00:17Z</time>
      </trkpt>
      <trkpt lat="43.21105" lon="5.52276">
        <ele>41</ele>
        <time>2021-06-10T07:00:24Z</time>
      </trkpt>
      <trkpt lat="43.21117" lon="5.52272">
        <ele>40</ele>
        <time>2021-06-10T07:00:40Z</time>
      </trkpt>
      <trkpt lat="43.21119" lon="5.52269">
        <ele>39</ele>
        <time>2021-06-10T07:00:44Z</time>
      </trkpt>
      <trkpt lat="43.21125" lon="5.52268">
        <ele>39</ele>
        <time>2021-06-10T07:00:52Z</time>
      </trkpt>
      <trkpt lat="43.21128" lon="5.52262">
        <ele>37</ele>
        <time>2021-06-10T07:00:59Z</time>
      </trkpt>
      <trkpt lat="43.21128" lon="5.52256">
        <ele>36</ele>
        <time>2021-06-10T07:01:05Z</time>
      </trkpt>
      <trkpt lat="43.21132" lon="5.52255">
        <ele>36</ele>
        <time>2021-06-10T07:01:10Z</time>
      </trkpt>
      <trkpt lat="43.21137" lon="5.52258">
        <ele>36</ele>
        <time>2021-06-10T07:01:18Z</time>
      </trkpt>
      <trkpt lat="43.21139" lon="5.52254">
        <ele>35</ele>
        <time>2021-06-10T07:01:22Z</time>
      </trkpt>
      <trkpt lat="43.21142" lon="5.52253">
        <ele>35</ele>
        <time>2021-06-10T07:01:27Z</time>
      </trkpt>
      <trkpt lat="43.21146" lon="5.52219">
        <ele>28</ele>
        <time>2021-06-10T07:02:00Z</time>
      </trkpt>
      <trkpt lat="43.21149" lon="5.52209">
        <ele>26</ele>
        <time>2021-06-10T07:02:11Z</time>
      </trkpt>
      <trkpt lat="43.21154" lon="5.52204">
        <ele>25</ele>
        <time>2021-06-10T07:02:19Z</time>
      </trkpt>
      <trkpt lat="43.21162" lon="5.52205">
        <ele>25</ele>
        <time>2021-06-10T07:02:30Z</time>
      </trkpt>
      <trkpt lat="43.2119" lon="5.52216">
        <ele>28</ele>
        <time>2021-06-10T07:03:08Z</time>
      </trkpt>
      <trkpt lat="43.21199" lon="5.52216">
        <ele>29</ele>
        <time>2021-06-10T07:03:20Z</time>
      </trkpt>
      <trkpt lat="43.21212" lon="5.52207">
        <ele>30</ele>
        <time>2021-06-10T07:03:40Z</time>
      </trkpt>
      <trkpt lat="43.21216" lon="5.52208">
        <ele>30</ele>
        <time>2021-06-10T07:03:45Z</time>
      </trkpt>
      <trkpt lat="43.21216" lon="5.52198">
        <ele>30</ele>
        <time>2021-06-10T07:03:55Z</time>
      </trkpt>
      <trkpt lat="43.21213" lon="5.52187">
        <ele>30</ele>
        <time>2021-06-10T07:04:06Z</time>
      </trkpt>
      <trkpt lat="43.2119" lon="5.52164">
        <ele>25</ele>
        <time>2021-06-10T07:04:44Z</time>
      </trkpt>
      <trkpt lat="43.21154" lon="5.52096">
        <ele>24</ele>
        <time>2021-06-10T07:06:06Z</time>
      </trkpt>
      <trkpt lat="43.21132" lon="5.52075">
        <ele>22</ele>
        <time>2021-06-10T07:06:42Z</time>
      </trkpt>
      <trkpt lat="43.2111" lon="5.52039">
        <ele>26</ele>
        <time>2021-06-10T07:07:28Z</time>
      </trkpt>
      <trkpt lat="43.2104" lon="5.51976">
        <ele>22</ele>
        <time>2021-06-10T07:09:19Z</time>
      </trkpt>
      <trkpt lat="43.21022" lon="5.51954">
        <ele>21</ele>
        <time>2021-06-10T07:09:51Z</time>
      </trkpt>
      <trkpt lat="43.21002" lon="5.51919">
        <ele>20</ele>
        <time>2021-06-10T07:10:35Z</time>
      </trkpt>
      <trkpt lat="43.20903" lon="5.51776">
        <ele>14</ele>
        <time>2021-06-10T07:13:47Z</time>
      </trkpt>
      <trkpt lat="43.20897" lon="5.51777">
        <ele>13</ele>
        <time>2021-06-10T07:13:55Z</time>
      </trkpt>
      <trkpt lat="43.20789" lon="5.516">
        <ele>15</ele>
        <time>2021-06-10T07:17:39Z</time>
      </trkpt>
      <trkpt lat="43.20738" lon="5.51507">
        <ele>21</ele>
        <time>2021-06-10T07:19:32Z</time>
      </trkpt>
      <trkpt lat="43.20726" lon="5.51492">
        <ele>24</ele>
        <time>2021-06-10T07:19:54Z</time>
      </trkpt>
      <trkpt lat="43.20696" lon="5.51476">
        <ele>26</ele>
        <time>2021-06-10T07:20:37Z</time>
      </trkpt>
      <trkpt lat="43.20665" lon="5.51467">
        <ele>24</ele>
        <time>2021-06-10T07:21:19Z</time>
      </trkpt>
      <trkpt lat="43.20645" lon="5.51456">
        <ele>26</ele>
        <time>2021-06-10T07:21:48Z</time>
      </trkpt>
      <trkpt lat="43.20618" lon="5.5143">
        <ele>29</ele>
        <time>2021-06-10T07:22:32Z</time>
      </trkpt>
      <trkpt lat="43.20594" lon="5.514">
        <ele>30</ele>
        <time>2021-06-10T07:23:15Z</time>
      </trkpt>
      <trkpt lat="43.20581" lon="5.51366">
        <ele>32</ele>
        <time>2021-06-10T07:23:53Z</time>
      </trkpt>
      <trkpt lat="43.2058" lon="5.51354">
        <ele>34</ele>
        <time>2021-06-10T07:24:04Z</time>
      </trkpt>
      <trkpt lat="43.20582" lon="5.51344">
        <ele>36</ele>
        <time>2021-06-10T07:24:15Z</time>
      </trkpt>
      <trkpt lat="43.20583" lon="5.51334">
        <ele>38</ele>
        <time>2021-06-10T07:24:24Z</time>
      </trkpt>
      <trkpt lat="43.20599" lon="5.51305">
        <ele>44</ele>
        <time>2021-06-10T07:25:00Z</time>
      </trkpt>
      <trkpt lat="43.20599" lon="5.51271">
        <ele>47</ele>
        <time>2021-06-10T07:25:33Z</time>
      </trkpt>
      <trkpt lat="43.20591" lon="5.51251">
        <ele>47</ele>
        <time>2021-06-10T07:25:55Z</time>
      </trkpt>
      <trkpt lat="43.20586" lon="5.51227">
        <ele>47</ele>
        <time>2021-06-10T07:26:19Z</time>
      </trkpt>
      <trkpt lat="43.20564" lon="5.51192">
        <ele>44</ele>
        <time>2021-06-10T07:27:04Z</time>
      </trkpt>
      <trkpt lat="43.20546" lon="5.51182">
        <ele>41</ele>
        <time>2021-06-10T07:27:30Z</time>
      </trkpt>
      <trkpt lat="43.20533" lon="5.51162">
        <ele>39</ele>
        <time>2021-06-10T07:27:56Z</time>
      </trkpt>
      <trkpt lat="43.2052" lon="5.51163">
        <ele>37</ele>
        <time>2021-06-10T07:28:14Z</time>
      </trkpt>
      <trkpt lat="43.2049" lon="5.51158">
        <ele>32</ele>
        <time>2021-06-10T07:28:54Z</time>
      </trkpt>
      <trkpt lat="43.20445" lon="5.51161">
        <ele>27</ele>
        <time>2021-06-10T07:29:54Z</time>
      </trkpt>
      <trkpt lat="43.20429" lon="5.51122">
        <ele>20</ele>
        <time>2021-06-10T07:30:38Z</time>
      </trkpt>
      <trkpt lat="43.20419" lon="5.51091">
        <ele>16</ele>
        <time>2021-06-10T07:31:11Z</time>
      </trkpt>
      <trkpt lat="43.20414" lon="5.51086">
        <ele>15</ele>
        <time>2021-06-10T07:31:19Z</time>
      </trkpt>
      <trkpt lat="43.20412" lon="5.51078">
        <ele>15</ele>
        <time>2021-06-10T07:31:27Z</time>
      </trkpt>
      <trkpt lat="43.20417" lon="5.51072">
        <ele>16</ele>
        <time>2021-06-10T07:31:36Z</time>
      </trkpt>
      <trkpt lat="43.20405" lon="5.51057">
        <ele>16</ele>
        <time>2021-06-10T07:31:58Z</time>
      </trkpt>
      <trkpt lat="43.204" lon="5.51052">
        <ele>16</ele>
        <time>2021-06-10T07:32:06Z</time>
      </trkpt>
      <trkpt lat="43.20395" lon="5.51048">
        <ele>16</ele>
        <time>2021-06-10T07:32:14Z</time>
      </trkpt>
      <trkpt lat="43.2038" lon="5.5106">
        <ele>15</ele>
        <time>2021-06-10T07:32:37Z</time>
      </trkpt>
      <trkpt lat="43.20368" lon="5.51052">
        <ele>15</ele>
        <time>2021-06-10T07:32:54Z</time>
      </trkpt>
      <trkpt lat="43.20363" lon="5.51037">
        <ele>16</ele>
        <time>2021-06-10T07:33:11Z</time>
      </trkpt>
      <trkpt lat="43.20356" lon="5.51028">
        <ele>17</ele>
        <time>2021-06-10T07:33:23Z</time>
      </trkpt>
      <trkpt lat="43.20354" lon="5.51024">
        <ele>17</ele>
        <time>2021-06-10T07:33:28Z</time>
      </trkpt>
      <trkpt lat="43.20355" lon="5.50999">
        <ele>19</ele>
        <time>2021-06-10T07:33:52Z</time>
      </trkpt>
      <trkpt lat="43.20352" lon="5.50986">
        <ele>22</ele>
        <time>2021-06-10T07:34:06Z</time>
      </trkpt>
      <trkpt lat="43.20358" lon="5.50972">
        <ele>25</ele>
        <time>2021-06-10T07:34:21Z</time>
      </trkpt>
      <trkpt lat="43.2036" lon="5.50957">
        <ele>28</ele>
        <time>2021-06-10T07:34:36Z</time>
      </trkpt>
      <trkpt lat="43.20357" lon="5.50924">
        <ele>35</ele>
        <time>2021-06-10T07:35:09Z</time>
      </trkpt>
      <trkpt lat="43.20353" lon="5.50912">
        <ele>38</ele>
        <time>2021-06-10T07:35:21Z</time>
      </trkpt>
      <trkpt lat="43.20347" lon="5.50899">
        <ele>42</ele>
        <time>2021-06-10T07:35:36Z</time>
      </trkpt>
      <trkpt lat="43.20329" lon="5.50858">
        <ele>56</ele>
        <time>2021-06-10T07:36:23Z</time>
      </trkpt>
      <trkpt lat="43.2032" lon="5.50853">
        <ele>56</ele>
        <time>2021-06-10T07:36:36Z</time>
      </trkpt>
      <trkpt lat="43.20299" lon="5.50859">
        <ele>50</ele>
        <time>2021-06-10T07:37:05Z</time>
      </trkpt>
      <trkpt lat="43.20285" lon="5.5085">
        <ele>51</ele>
        <time>2021-06-10T07:37:25Z</time>
      </trkpt>
      <trkpt lat="43.20266" lon="5.5083">
        <ele>54</ele>
        <time>2021-06-10T07:37:57Z</time>
      </trkpt>
      <trkpt lat="43.20256" lon="5.50812">
        <ele>57</ele>
        <time>2021-06-10T07:38:19Z</time>
      </trkpt>
      <trkpt lat="43.20236" lon="5.50794">
        <ele>57</ele>
        <time>2021-06-10T07:38:51Z</time>
      </trkpt>
      <trkpt lat="43.20222" lon="5.50801">
        <ele>51</ele>
        <time>2021-06-10T07:39:11Z</time>
      </trkpt>
      <trkpt lat="43.20201" lon="5.50801">
        <ele>46</ele>
        <time>2021-06-10T07:39:39Z</time>
      </trkpt>
      <trkpt lat="43.20176" lon="5.50773">
        <ele>46</ele>
        <time>2021-06-10T07:40:22Z</time>
      </trkpt>
      <trkpt lat="43.20148" lon="5.50729">
        <ele>47</ele>
        <time>2021-06-10T07:41:19Z</time>
      </trkpt>
      <trkpt lat="43.20129" lon="5.50708">
        <ele>45</ele>
        <time>2021-06-10T07:41:51Z</time>
      </trkpt>
      <trkpt lat="43.20118" lon="5.50696">
        <ele>44</ele>
        <time>2021-06-10T07:42:10Z</time>
      </trkpt>
      <trkpt lat="43.20075" lon="5.50699">
        <ele>32</ele>
        <time>2021-06-10T07:43:08Z</time>
      </trkpt>
      <trkpt lat="43.20054" lon="5.50707">
        <ele>27</ele>
        <time>2021-06-10T07:43:37Z</time>
      </trkpt>
      <trkpt lat="43.20044" lon="5.50707">
        <ele>24</ele>
        <time>2021-06-10T07:43:50Z</time>
      </trkpt>
      <trkpt lat="43.20041" lon="5.50699">
        <ele>25</ele>
        <time>2021-06-10T07:43:59Z</time>
      </trkpt>
      <trkpt lat="43.20039" lon="5.50693">
        <ele>25</ele>
        <time>2021-06-10T07:44:05Z</time>
      </trkpt>
      <trkpt lat="43.2004" lon="5.50689">
        <ele>26</ele>
        <time>2021-06-10T07:44:09Z</time>
      </trkpt>
      <trkpt lat="43.20035" lon="5.50678">
        <ele>26</ele>
        <time>2021-06-10T07:44:22Z</time>
      </trkpt>
      <trkpt lat="43.20029" lon="5.50669">
        <ele>26</ele>
        <time>2021-06-10T07:44:34Z</time>
      </trkpt>
      <trkpt lat="43.20028" lon="5.50668">
        <ele>26</ele>
        <time>2021-06-10T07:44:36Z</time>
      </trkpt>
      <trkpt lat="43.20019" lon="5.50643">
        <ele>27</ele>
        <time>2021-06-10T07:45:03Z</time>
      </trkpt>
      <trkpt lat="43.20014" lon="5.50612">
        <ele>29</ele>
        <time>2021-06-10T07:45:34Z</time>
      </trkpt>
      <trkpt lat="43.20014" lon="5.50589">
        <ele>32</ele>
        <time>2021-06-10T07:45:56Z</time>
      </trkpt>
      <trkpt lat="43.20018" lon="5.50579">
        <ele>34</ele>
        <time>2021-06-10T07:46:07Z</time>
      </trkpt>
      <trkpt lat="43.20025" lon="5.50572">
        <ele>37</ele>
        <time>2021-06-10T07:46:19Z</time>
      </trkpt>
      <trkpt lat="43.20026" lon="5.50563">
        <ele>38</ele>
        <time>2021-06-10T07:46:27Z</time>
      </trkpt>
      <trkpt lat="43.20039" lon="5.50537">
        <ele>44</ele>
        <time>2021-06-10T07:46:58Z</time>
      </trkpt>
      <trkpt lat="43.20051" lon="5.50529">
        <ele>49</ele>
        <time>2021-06-10T07:47:16Z</time>
      </trkpt>
      <trkpt lat="43.20073" lon="5.50488">
        <ele>58</ele>
        <time>2021-06-10T07:48:05Z</time>
      </trkpt>
      <trkpt lat="43.20077" lon="5.50473">
        <ele>59</ele>
        <time>2021-06-10T07:48:21Z</time>
      </trkpt>
      <trkpt lat="43.20083" lon="5.50456">
        <ele>59</ele>
        <time>2021-06-10T07:48:39Z</time>
      </trkpt>
      <trkpt lat="43.20085" lon="5.50443">
        <ele>59</ele>
        <time>2021-06-10T07:48:52Z</time>
      </trkpt>
      <trkpt lat="43.20083" lon="5.50424">
        <ele>57</ele>
        <time>2021-06-10T07:49:11Z</time>
      </trkpt>
      <trkpt lat="43.20089" lon="5.50407">
        <ele>57</ele>
        <time>2021-06-10T07:49:29Z</time>
      </trkpt>
      <trkpt lat="43.20104" lon="5.50394">
        <ele>61</ele>
        <time>2021-06-10T07:49:53Z</time>
      </trkpt>
      <trkpt lat="43.20116" lon="5.50369">
        <ele>65</ele>
        <time>2021-06-10T07:50:22Z</time>
      </trkpt>
      <trkpt lat="43.20123" lon="5.50366">
        <ele>68</ele>
        <time>2021-06-10T07:50:32Z</time>
      </trkpt>
      <trkpt lat="43.20133" lon="5.50353">
        <ele>73</ele>
        <time>2021-06-10T07:50:50Z</time>
      </trkpt>
      <trkpt lat="43.20144" lon="5.50346">
        <ele>79</ele>
        <time>2021-06-10T07:51:06Z</time>
      </trkpt>
      <trkpt lat="43.20142" lon="5.50332">
        <ele>77</ele>
        <time>2021-06-10T07:51:20Z</time>
      </trkpt>
      <trkpt lat="43.20144" lon="5.50317">
        <ele>77</ele>
        <time>2021-06-10T07:51:35Z</time>
      </trkpt>
      <trkpt lat="43.20147" lon="5.50308">
        <ele>78</ele>
        <time>2021-06-10T07:51:45Z</time>
      </trkpt>
      <trkpt lat="43.20154" lon="5.50284">
        <ele>81</ele>
        <time>2021-06-10T07:52:10Z</time>
      </trkpt>
      <trkpt lat="43.20162" lon="5.50271">
        <ele>86</ele>
        <time>2021-06-10T07:52:26Z</time>
      </trkpt>
      <trkpt lat="43.20177" lon="5.50236">
        <ele>87</ele>
        <time>2021-06-10T07:53:06Z</time>
      </trkpt>
      <trkpt lat="43.20199" lon="5.50212">
        <ele>90</ele>
        <time>2021-06-10T07:53:43Z</time>
      </trkpt>
      <trkpt lat="43.20202" lon="5.50198">
        <ele>89</ele>
        <time>2021-06-10T07:53:58Z</time>
      </trkpt>
      <trkpt lat="43.20209" lon="5.50184">
        <ele>89</ele>
        <time>2021-06-10T07:54:14Z</time>
      </trkpt>
      <trkpt lat="43.2021" lon="5.50196">
        <ele>92</ele>
        <time>2021-06-10T07:54:26Z</time>
      </trkpt>
      <trkpt lat="43.20211" lon="5.50203">
        <ele>94</ele>
        <time>2021-06-10T07:54:33Z</time>
      </trkpt>
      <trkpt lat="43.20219" lon="5.50211">
        <ele>99</ele>
        <time>2021-06-10T07:54:46Z</time>
      </trkpt>
      <trkpt lat="43.20224" lon="5.50221">
        <ele>102</ele>
        <time>2021-06-10T07:54:58Z</time>
      </trkpt>
      <trkpt lat="43.20242" lon="5.50237">
        <ele>110</ele>
        <time>2021-06-10T07:55:26Z</time>
      </trkpt>
      <trkpt lat="43.20245" lon="5.50237">
        <ele>111</ele>
        <time>2021-06-10T07:55:31Z</time>
      </trkpt>
      <trkpt lat="43.20248" lon="5.50236">
        <ele>112</ele>
        <time>2021-06-10T07:55:35Z</time>
      </trkpt>
      <trkpt lat="43.20274" lon="5.50242">
        <ele>117</ele>
        <time>2021-06-10T07:56:10Z</time>
      </trkpt>
      <trkpt lat="43.20335" lon="5.50243">
        <ele>127</ele>
        <time>2021-06-10T07:57:31Z</time>
      </trkpt>
      <trkpt lat="43.20342" lon="5.50239">
        <ele>129</ele>
        <time>2021-06-10T07:57:41Z</time>
      </trkpt>
      <trkpt lat="43.2035" lon="5.50227">
        <ele>130</ele>
        <time>2021-06-10T07:57:57Z</time>
      </trkpt>
      <trkpt lat="43.20343" lon="5.50196">
        <ele>130</ele>
        <time>2021-06-10T07:58:29Z</time>
      </trkpt>
      <trkpt lat="43.2034" lon="5.50181">
        <ele>130</ele>
        <time>2021-06-10T07:58:44Z</time>
      </trkpt>
      <trkpt lat="43.2034" lon="5.50164">
        <ele>131</ele>
        <time>2021-06-10T07:59:00Z</time>
      </trkpt>
      <trkpt lat="43.20348" lon="5.50176">
        <ele>132</ele>
        <time>2021-06-10T07:59:16Z</time>
      </trkpt>
      <trkpt lat="43.20352" lon="5.5015">
        <ele>132</ele>
        <time>2021-06-10T07:59:42Z</time>
      </trkpt>
      <trkpt lat="43.20385" lon="5.50069">
        <ele>134</ele>
        <time>2021-06-10T08:01:12Z</time>
      </trkpt>
      <trkpt lat="43.2039" lon="5.50032">
        <ele>134</ele>
        <time>2021-06-10T08:01:49Z</time>
      </trkpt>
      <trkpt lat="43.20391" lon="5.50026">
        <ele>134</ele>
        <time>2021-06-10T08:01:55Z</time>
      </trkpt>
      <trkpt lat="43.20413" lon="5.49966">
        <ele>137</ele>
        <time>2021-06-10T08:03:00Z</time>
      </trkpt>
      <trkpt lat="43.20432" lon="5.49944">
        <ele>137</ele>
        <time>2021-06-10T08:03:33Z</time>
      </trkpt>
      <trkpt lat="43.20435" lon="5.49924">
        <ele>136</ele>
        <time>2021-06-10T08:03:53Z</time>
      </trkpt>
      <trkpt lat="43.20438" lon="5.4986">
        <ele>130</ele>
        <time>2021-06-10T08:04:56Z</time>
      </trkpt>
      <trkpt lat="43.20435" lon="5.49843">
        <ele>129</ele>
        <time>2021-06-10T08:05:13Z</time>
      </trkpt>
      <trkpt lat="43.20438" lon="5.4986">
        <ele>130</ele>
        <time>2021-06-10T08:05:30Z</time>
      </trkpt>
      <trkpt lat="43.20435" lon="5.49924">
        <ele>136</ele>
        <time>2021-06-10T08:06:32Z</time>
      </trkpt>
      <trkpt lat="43.20432" lon="5.49944">
        <ele>137</ele>
        <time>2021-06-10T08:06:52Z</time>
      </trkpt>
      <trkpt lat="43.20451" lon="5.49991">
        <ele>140</ele>
        <time>2021-06-10T08:07:44Z</time>
      </trkpt>
      <trkpt lat="43.20477" lon="5.50026">
        <ele>142</ele>
        <time>2021-06-10T08:08:33Z</time>
      </trkpt>
      <trkpt lat="43.2048" lon="5.50034">
        <ele>143</ele>
        <time>2021-06-10T08:08:42Z</time>
      </trkpt>
      <trkpt lat="43.2049" lon="5.5006">
        <ele>144</ele>
        <time>2021-06-10T08:09:10Z</time>
      </trkpt>
      <trkpt lat="43.20492" lon="5.50075">
        <ele>145</ele>
        <time>2021-06-10T08:09:25Z</time>
      </trkpt>
      <trkpt lat="43.20492" lon="5.5012">
        <ele>146</ele>
        <time>2021-06-10T08:10:09Z</time>
      </trkpt>
      <trkpt lat="43.20495" lon="5.5013">
        <ele>147</ele>
        <time>2021-06-10T08:10:19Z</time>
      </trkpt>
      <trkpt lat="43.20507" lon="5.50145">
        <ele>146</ele>
        <time>2021-06-10T08:10:41Z</time>
      </trkpt>
      <trkpt lat="43.20541" lon="5.50177">
        <ele>142</ele>
        <time>2021-06-10T08:11:36Z</time>
      </trkpt>
      <trkpt lat="43.20577" lon="5.50197">
        <ele>137</ele>
        <time>2021-06-10T08:12:28Z</time>
      </trkpt>
      <trkpt lat="43.20597" lon="5.50203">
        <ele>135</ele>
        <time>2021-06-10T08:12:55Z</time>
      </trkpt>
      <trkpt lat="43.20606" lon="5.50208">
        <ele>135</ele>
        <time>2021-06-10T08:13:08Z</time>
      </trkpt>
      <trkpt lat="43.20625" lon="5.50205">
        <ele>134</ele>
        <time>2021-06-10T08:13:34Z</time>
      </trkpt>
      <trkpt lat="43.20624" lon="5.50218">
        <ele>134</ele>
        <time>2021-06-10T08:13:46Z</time>
      </trkpt>
      <trkpt lat="43.20621" lon="5.50226">
        <ele>135</ele>
        <time>2021-06-10T08:13:55Z</time>
      </trkpt>
      <trkpt lat="43.20624" lon="5.50218">
        <ele>134</ele>
        <time>2021-06-10T08:14:04Z</time>
      </trkpt>
      <trkpt lat="43.20625" lon="5.50205">
        <ele>134</ele>
        <time>2021-06-10T08:14:17Z</time>
      </trkpt>
      <trkpt lat="43.20642" lon="5.50205">
        <ele>133</ele>
        <time>2021-06-10T08:14:39Z</time>
      </trkpt>
      <trkpt lat="43.20677" lon="5.50188">
        <ele>131</ele>
        <time>2021-06-10T08:15:29Z</time>
      </trkpt>
      <trkpt lat="43.20688" lon="5.50191">
        <ele>133</ele>
        <time>2021-06-10T08:15:44Z</time>
      </trkpt>
      <trkpt lat="43.20704" lon="5.50208">
        <ele>136</ele>
        <time>2021-06-10T08:16:11Z</time>
      </trkpt>
      <trkpt lat="43.20713" lon="5.5021">
        <ele>137</ele>
        <time>2021-06-10T08:16:23Z</time>
      </trkpt>
      <trkpt lat="43.20778" lon="5.50214">
        <ele>144</ele>
        <time>2021-06-10T08:17:50Z</time>
      </trkpt>
      <trkpt lat="43.20812" lon="5.50208">
        <ele>147</ele>
        <time>2021-06-10T08:18:35Z</time>
      </trkpt>
      <trkpt lat="43.20833" lon="5.50192">
        <ele>149</ele>
        <time>2021-06-10T08:19:08Z</time>
      </trkpt>
      <trkpt lat="43.20838" lon="5.50185">
        <ele>150</ele>
        <time>2021-06-10T08:19:17Z</time>
      </trkpt>
      <trkpt lat="43.20848" lon="5.50177">
        <ele>151</ele>
        <time>2021-06-10T08:19:33Z</time>
      </trkpt>
      <trkpt lat="43.20863" lon="5.50171">
        <ele>152</ele>
        <time>2021-06-10T08:19:53Z</time>
      </trkpt>
      <trkpt lat="43.20879" lon="5.50169">
        <ele>153</ele>
        <time>2021-06-10T08:20:15Z</time>
      </trkpt>
      <trkpt lat="43.20903" lon="5.50173">
        <ele>154</ele>
        <time>2021-06-10T08:20:47Z</time>
      </trkpt>
      <trkpt lat="43.20927" lon="5.5018">
        <ele>156</ele>
        <time>2021-06-10T08:21:20Z</time>
      </trkpt>
      <trkpt lat="43.20958" lon="5.50193">
        <ele>157</ele>
        <time>2021-06-10T08:22:03Z</time>
      </trkpt>
      <trkpt lat="43.2098" lon="5.50201">
        <ele>159</ele>
        <time>2021-06-10T08:22:33Z</time>
      </trkpt>
      <trkpt lat="43.20996" lon="5.50211">
        <ele>160</ele>
        <time>2021-06-10T08:22:57Z</time>
      </trkpt>
      <trkpt lat="43.21003" lon="5.50216">
        <ele>161</ele>
        <time>2021-06-10T08:23:07Z</time>
      </trkpt>
      <trkpt lat="43.21009" lon="5.50235">
        <ele>162</ele>
        <time>2021-06-10T08:23:28Z</time>
      </trkpt>
      <trkpt lat="43.21009" lon="5.50273">
        <ele>163</ele>
        <time>2021-06-10T08:24:05Z</time>
      </trkpt>
      <trkpt lat="43.21032" lon="5.50349">
        <ele>167</ele>
        <time>2021-06-10T08:25:25Z</time>
      </trkpt>
      <trkpt lat="43.21051" lon="5.50439">
        <ele>170</ele>
        <time>2021-06-10T08:26:56Z</time>
      </trkpt>
      <trkpt lat="43.21068" lon="5.50469">
        <ele>172</ele>
        <time>2021-06-10T08:27:33Z</time>
      </trkpt>
      <trkpt lat="43.21253" lon="5.5061">
        <ele>185</ele>
        <time>2021-06-10T08:32:15Z</time>
      </trkpt>
      <trkpt lat="43.213" lon="5.50629">
        <ele>187</ele>
        <time>2021-06-10T08:33:20Z</time>
      </trkpt>
      <trkpt lat="43.21361" lon="5.50644">
        <ele>190</ele>
        <time>2021-06-10T08:34:43Z</time>
      </trkpt>
      <trkpt lat="43.21405" lon="5.5067">
        <ele>192</ele>
        <time>2021-06-10T08:35:47Z</time>
      </trkpt>
      <trkpt lat="43.21491" lon="5.50741">
        <ele>191</ele>
        <time>2021-06-10T08:38:01Z</time>
      </trkpt>
      <trkpt lat="43.21492" lon="5.50742">
        <ele>191</ele>
        <time>2021-06-10T08:38:03Z</time>
      </trkpt>
      <trkpt lat="43.21533" lon="5.50763">
        <ele>190</ele>
        <time>2021-06-10T08:39:01Z</time>
      </trkpt>
      <trkpt lat="43.21594" lon="5.50778">
        <ele>190</ele>
        <time>2021-06-10T08:40:24Z</time>
      </trkpt>
      <trkpt lat="43.21624" lon="5.50811">
        <ele>190</ele>
        <time>2021-06-10T08:41:15Z</time>
      </trkpt>
      <trkpt lat="43.21641" lon="5.50818">
        <ele>190</ele>
        <time>2021-06-10T08:41:39Z</time>
      </trkpt>
      <trkpt lat="43.21695" lon="5.50881">
        <ele>190</ele>
        <time>2021-06-10T08:43:13Z</time>
      </trkpt>
      <trkpt lat="43.21697" lon="5.50875">
        <ele>190</ele>
        <time>2021-06-10T08:43:20Z</time>
      </trkpt>
      <trkpt lat="43.21699" lon="5.50872">
        <ele>190</ele>
        <time>2021-06-10T08:43:24Z</time>
      </trkpt>
      <trkpt lat="43.21707" lon="5.50862">
        <ele>191</ele>
        <time>2021-06-10T08:43:38Z</time>
      </trkpt>
      <trkpt lat="43.21732" lon="5.50818">
        <ele>190</ele>
        <time>2021-06-10T08:44:32Z</time>
      </trkpt>
      <trkpt lat="43.21751" lon="5.50797">
        <ele>189</ele>
        <time>2021-06-10T08:45:05Z</time>
      </trkpt>
      <trkpt lat="43.21778" lon="5.50759">
        <ele>188</ele>
        <time>2021-06-10T08:45:57Z</time>
      </trkpt>
      <trkpt lat="43.21784" lon="5.5075">
        <ele>187</ele>
        <time>2021-06-10T08:46:08Z</time>
      </trkpt>
      <trkpt lat="43.21795" lon="5.50745">
        <ele>187</ele>
        <time>2021-06-10T08:46:24Z</time>
      </trkpt>
      <trkpt lat="43.21803" lon="5.5074">
        <ele>187</ele>
        <time>2021-06-10T08:46:36Z</time>
      </trkpt>
      <trkpt lat="43.21805" lon="5.50735">
        <ele>186</ele>
        <time>2021-06-10T08:46:41Z</time>
      </trkpt>
      <trkpt lat="43.21806" lon="5.50728">
        <ele>185</ele>
        <time>2021-06-10T08:46:48Z</time>
      </trkpt>
      <trkpt lat="43.21806" lon="5.5068">
        <ele>180</ele>
        <time>2021-06-10T08:47:35Z</time>
      </trkpt>
      <trkpt lat="43.21811" lon="5.50678">
        <ele>179</ele>
        <time>2021-06-10T08:47:42Z</time>
      </trkpt>
      <trkpt lat="43.2182" lon="5.50686">
        <ele>179</ele>
        <time>2021-06-10T08:47:56Z</time>
      </trkpt>
      <trkpt lat="43.21823" lon="5.50688">
        <ele>180</ele>
        <time>2021-06-10T08:48:01Z</time>
      </trkpt>
      <trkpt lat="43.21827" lon="5.50687">
        <ele>179</ele>
        <time>2021-06-10T08:48:06Z</time>
      </trkpt>
      <trkpt lat="43.21854" lon="5.50661">
        <ele>177</ele>
        <time>2021-06-10T08:48:50Z</time>
      </trkpt>
      <trkpt lat="43.21858" lon="5.5066">
        <ele>177</ele>
        <time>2021-06-10T08:48:55Z</time>
      </trkpt>
      <trkpt lat="43.21858" lon="5.50654">
        <ele>177</ele>
        <time>2021-06-10T08:49:01Z</time>
      </trkpt>
      <trkpt lat="43.21855" lon="5.50651">
        <ele>177</ele>
        <time>2021-06-10T08:49:06Z</time>
      </trkpt>
      <trkpt lat="43.21827" lon="5.50655">
        <ele>176</ele>
        <time>2021-06-10T08:49:44Z</time>
      </trkpt>
      <trkpt lat="43.21815" lon="5.50647">
        <ele>177</ele>
        <time>2021-06-10T08:50:02Z</time>
      </trkpt>
      <trkpt lat="43.2181" lon="5.50633">
        <ele>176</ele>
        <time>2021-06-10T08:50:17Z</time>
      </trkpt>
      <trkpt lat="43.21811" lon="5.50626">
        <ele>176</ele>
        <time>2021-06-10T08:50:24Z</time>
      </trkpt>
      <trkpt lat="43.21812" lon="5.50622">
        <ele>176</ele>
        <time>2021-06-10T08:50:28Z</time>
      </trkpt>
      <trkpt lat="43.21818" lon="5.50614">
        <ele>175</ele>
        <time>2021-06-10T08:50:39Z</time>
      </trkpt>
      <trkpt lat="43.21834" lon="5.50603">
        <ele>175</ele>
        <time>2021-06-10T08:51:03Z</time>
      </trkpt>
      <trkpt lat="43.21842" lon="5.50595">
        <ele>175</ele>
        <time>2021-06-10T08:51:16Z</time>
      </trkpt>
      <trkpt lat="43.21844" lon="5.50585">
        <ele>175</ele>
        <time>2021-06-10T08:51:26Z</time>
      </trkpt>
      <trkpt lat="43.21857" lon="5.50574">
        <ele>177</ele>
        <time>2021-06-10T08:51:46Z</time>
      </trkpt>
      <trkpt lat="43.21929" lon="5.50534">
        <ele>186</ele>
        <time>2021-06-10T08:53:30Z</time>
      </trkpt>
      <trkpt lat="43.21947" lon="5.50514">
        <ele>188</ele>
        <time>2021-06-10T08:54:01Z</time>
      </trkpt>
      <trkpt lat="43.21966" lon="5.50499">
        <ele>188</ele>
        <time>2021-06-10T08:54:30Z</time>
      </trkpt>
      <trkpt lat="43.21983" lon="5.50481">
        <ele>190</ele>
        <time>2021-06-10T08:54:59Z</time>
      </trkpt>
      <trkpt lat="43.21998" lon="5.5047">
        <ele>191</ele>
        <time>2021-06-10T08:55:22Z</time>
      </trkpt>
      <trkpt lat="43.22018" lon="5.5046">
        <ele>193</ele>
        <time>2021-06-10T08:55:50Z</time>
      </trkpt>
      <trkpt lat="43.22044" lon="5.50455">
        <ele>196</ele>
        <time>2021-06-10T08:56:25Z</time>
      </trkpt>
      <trkpt lat="43.22069" lon="5.50456">
        <ele>198</ele>
        <time>2021-06-10T08:56:58Z</time>
      </trkpt>
      <trkpt lat="43.22074" lon="5.50454">
        <ele>198</ele>
        <time>2021-06-10T08:57:05Z</time>
      </trkpt>
      <trkpt lat="43.22075" lon="5.50445">
        <ele>198</ele>
        <time>2021-06-10T08:57:14Z</time>
      </trkpt>
      <trkpt lat="43.22071" lon="5.50442">
        <ele>198</ele>
        <time>2021-06-10T08:57:20Z</time>
      </trkpt>
      <trkpt lat="43.22069" lon="5.5044">
        <ele>198</ele>
        <time>2021-06-10T08:57:24Z</time>
      </trkpt>
      <trkpt lat="43.22026" lon="5.50422">
        <ele>195</ele>
        <time>2021-06-10T08:58:24Z</time>
      </trkpt>
      <trkpt lat="43.2201" lon="5.50418">
        <ele>194</ele>
        <time>2021-06-10T08:58:45Z</time>
      </trkpt>
      <trkpt lat="43.22007" lon="5.50415">
        <ele>194</ele>
        <time>2021-06-10T08:58:50Z</time>
      </trkpt>
      <trkpt lat="43.2201" lon="5.50407">
        <ele>195</ele>
        <time>2021-06-10T08:58:59Z</time>
      </trkpt>
      <trkpt lat="43.22032" lon="5.50382">
        <ele>197</ele>
        <time>2021-06-10T08:59:37Z</time>
      </trkpt>
      <trkpt lat="43.22081" lon="5.50304">
        <ele>201</ele>
        <time>2021-06-10T09:01:17Z</time>
      </trkpt>
      <trkpt lat="43.22084" lon="5.50296">
        <ele>201</ele>
        <time>2021-06-10T09:01:26Z</time>
      </trkpt>
      <trkpt lat="43.22089" lon="5.50291">
        <ele>201</ele>
        <time>2021-06-10T09:01:34Z</time>
      </trkpt>
      <trkpt lat="43.22089" lon="5.50291">
        <ele>201</ele>
        <time>2021-06-10T09:01:34Z</time>
      </trkpt>
      <trkpt lat="43.22106" lon="5.50278">
        <ele>203</ele>
        <time>2021-06-10T09:02:00Z</time>
      </trkpt>
      <trkpt lat="43.22148" lon="5.50246">
        <ele>209</ele>
        <time>2021-06-10T09:03:04Z</time>
      </trkpt>
      <trkpt lat="43.22144" lon="5.50239">
        <ele>208</ele>
        <time>2021-06-10T09:03:13Z</time>
      </trkpt>
      <trkpt lat="43.22144" lon="5.50232">
        <ele>208</ele>
        <time>2021-06-10T09:03:20Z</time>
      </trkpt>
      <trkpt lat="43.22149" lon="5.50223">
        <ele>209</ele>
        <time>2021-06-10T09:03:31Z</time>
      </trkpt>
      <trkpt lat="43.22149" lon="5.50214">
        <ele>209</ele>
        <time>2021-06-10T09:03:40Z</time>
      </trkpt>
      <trkpt lat="43.22143" lon="5.50172">
        <ele>207</ele>
        <time>2021-06-10T09:04:21Z</time>
      </trkpt>
      <trkpt lat="43.22141" lon="5.50146">
        <ele>207</ele>
        <time>2021-06-10T09:04:47Z</time>
      </trkpt>
      <trkpt lat="43.22143" lon="5.50142">
        <ele>208</ele>
        <time>2021-06-10T09:04:51Z</time>
      </trkpt>
      <trkpt lat="43.22147" lon="5.5014">
        <ele>209</ele>
        <time>2021-06-10T09:04:57Z</time>
      </trkpt>
      <trkpt lat="43.22143" lon="5.50142">
        <ele>208</ele>
        <time>2021-06-10T09:05:03Z</time>
      </trkpt>
      <trkpt lat="43.22141" lon="5.50146">
        <ele>207</ele>
        <time>2021-06-10T09:05:07Z</time>
      </trkpt>
      <trkpt lat="43.22143" lon="5.50172">
        <ele>207</ele>
        <time>2021-06-10T09:05:33Z</time>
      </trkpt>
      <trkpt lat="43.22149" lon="5.50214">
        <ele>209</ele>
        <time>2021-06-10T09:06:15Z</time>
      </trkpt>
      <trkpt lat="43.22149" lon="5.50223">
        <ele>209</ele>
        <time>2021-06-10T09:06:23Z</time>
      </trkpt>
      <trkpt lat="43.22144" lon="5.50232">
        <ele>208</ele>
        <time>2021-06-10T09:06:34Z</time>
      </trkpt>
      <trkpt lat="43.22144" lon="5.50239">
        <ele>208</ele>
        <time>2021-06-10T09:06:41Z</time>
      </trkpt>
      <trkpt lat="43.22148" lon="5.50246">
        <ele>209</ele>
        <time>2021-06-10T09:06:50Z</time>
      </trkpt>
      <trkpt lat="43.22106" lon="5.50278">
        <ele>203</ele>
        <time>2021-06-10T09:07:54Z</time>
      </trkpt>
      <trkpt lat="43.22089" lon="5.50291">
        <ele>201</ele>
        <time>2021-06-10T09:08:20Z</time>
      </trkpt>
      <trkpt lat="43.22089" lon="5.50291">
        <ele>201</ele>
        <time>2021-06-10T09:08:20Z</time>
      </trkpt>
      <trkpt lat="43.22084" lon="5.50296">
        <ele>201</ele>
        <time>2021-06-10T09:08:28Z</time>
      </trkpt>
      <trkpt lat="43.22084" lon="5.50285">
        <ele>201</ele>
        <time>2021-06-10T09:08:39Z</time>
      </trkpt>
      <trkpt lat="43.22084" lon="5.50234">
        <ele>199</ele>
        <time>2021-06-10T09:09:28Z</time>
      </trkpt>
      <trkpt lat="43.22098" lon="5.50192">
        <ele>200</ele>
        <time>2021-06-10T09:10:13Z</time>
      </trkpt>
      <trkpt lat="43.22105" lon="5.50168">
        <ele>200</ele>
        <time>2021-06-10T09:10:38Z</time>
      </trkpt>
      <trkpt lat="43.22111" lon="5.50147">
        <ele>201</ele>
        <time>2021-06-10T09:11:00Z</time>
      </trkpt>
      <trkpt lat="43.22118" lon="5.50132">
        <ele>203</ele>
        <time>2021-06-10T09:11:18Z</time>
      </trkpt>
      <trkpt lat="43.22131" lon="5.50112">
        <ele>206</ele>
        <time>2021-06-10T09:11:44Z</time>
      </trkpt>
      <trkpt lat="43.22138" lon="5.50107">
        <ele>207</ele>
        <time>2021-06-10T09:11:54Z</time>
      </trkpt>
      <trkpt lat="43.2213" lon="5.5007">
        <ele>206</ele>
        <time>2021-06-10T09:12:32Z</time>
      </trkpt>
      <trkpt lat="43.22121" lon="5.49983">
        <ele>206</ele>
        <time>2021-06-10T09:13:57Z</time>
      </trkpt>
      <trkpt lat="43.2212" lon="5.49956">
        <ele>206</ele>
        <time>2021-06-10T09:14:24Z</time>
      </trkpt>
      <trkpt lat="43.22123" lon="5.49941">
        <ele>206</ele>
        <time>2021-06-10T09:14:39Z</time>
      </trkpt>
      <trkpt lat="43.22136" lon="5.49917">
        <ele>206</ele>
        <time>2021-06-10T09:15:08Z</time>
      </trkpt>
      <trkpt lat="43.22138" lon="5.49906">
        <ele>207</ele>
        <time>2021-06-10T09:15:19Z</time>
      </trkpt>
      <trkpt lat="43.22136" lon="5.49893">
        <ele>207</ele>
        <time>2021-06-10T09:15:32Z</time>
      </trkpt>
      <trkpt lat="43.22138" lon="5.49879">
        <ele>207</ele>
        <time>2021-06-10T09:15:46Z</time>
      </trkpt>
      <trkpt lat="43.22145" lon="5.49877">
        <ele>208</ele>
        <time>2021-06-10T09:15:55Z</time>
      </trkpt>
      <trkpt lat="43.22138" lon="5.49879">
        <ele>207</ele>
        <time>2021-06-10T09:16:05Z</time>
      </trkpt>
      <trkpt lat="43.22138" lon="5.49873">
        <ele>208</ele>
        <time>2021-06-10T09:16:10Z</time>
      </trkpt>
      <trkpt lat="43.22134" lon="5.49866">
        <ele>208</ele>
        <time>2021-06-10T09:16:19Z</time>
      </trkpt>
      <trkpt lat="43.22129" lon="5.49865">
        <ele>208</ele>
        <time>2021-06-10T09:16:26Z</time>
      </trkpt>
      <trkpt lat="43.22108" lon="5.49872">
        <ele>207</ele>
        <time>2021-06-10T09:16:55Z</time>
      </trkpt>
      <trkpt lat="43.22077" lon="5.49877">
        <ele>206</ele>
        <time>2021-06-10T09:17:36Z</time>
      </trkpt>
      <trkpt lat="43.22043" lon="5.4989">
        <ele>206</ele>
        <time>2021-06-10T09:18:23Z</time>
      </trkpt>
      <trkpt lat="43.22011" lon="5.49909">
        <ele>207</ele>
        <time>2021-06-10T09:19:10Z</time>
      </trkpt>
      <trkpt lat="43.21982" lon="5.49916">
        <ele>206</ele>
        <time>2021-06-10T09:19:49Z</time>
      </trkpt>
      <trkpt lat="43.21961" lon="5.49913">
        <ele>204</ele>
        <time>2021-06-10T09:20:17Z</time>
      </trkpt>
      <trkpt lat="43.21952" lon="5.49908">
        <ele>203</ele>
        <time>2021-06-10T09:20:30Z</time>
      </trkpt>
      <trkpt lat="43.21925" lon="5.49878">
        <ele>201</ele>
        <time>2021-06-10T09:21:17Z</time>
      </trkpt>
      <trkpt lat="43.21899" lon="5.49853">
        <ele>200</ele>
        <time>2021-06-10T09:21:59Z</time>
      </trkpt>
      <trkpt lat="43.21889" lon="5.49846">
        <ele>199</ele>
        <time>2021-06-10T09:22:14Z</time>
      </trkpt>
      <trkpt lat="43.2188" lon="5.49831">
        <ele>199</ele>
        <time>2021-06-10T09:22:33Z</time>
      </trkpt>
      <trkpt lat="43.21878" lon="5.4982">
        <ele>197</ele>
        <time>2021-06-10T09:22:44Z</time>
      </trkpt>
      <trkpt lat="43.21879" lon="5.49806">
        <ele>196</ele>
        <time>2021-06-10T09:22:58Z</time>
      </trkpt>
      <trkpt lat="43.21886" lon="5.49787">
        <ele>193</ele>
        <time>2021-06-10T09:23:18Z</time>
      </trkpt>
      <trkpt lat="43.21898" lon="5.49769">
        <ele>191</ele>
        <time>2021-06-10T09:23:42Z</time>
      </trkpt>
      <trkpt lat="43.21902" lon="5.49759">
        <ele>190</ele>
        <time>2021-06-10T09:23:53Z</time>
      </trkpt>
      <trkpt lat="43.21903" lon="5.49742">
        <ele>188</ele>
        <time>2021-06-10T09:24:10Z</time>
      </trkpt>
      <trkpt lat="43.21893" lon="5.49733">
        <ele>185</ele>
        <time>2021-06-10T09:24:26Z</time>
      </trkpt>
      <trkpt lat="43.21843" lon="5.49731">
        <ele>182</ele>
        <time>2021-06-10T09:25:33Z</time>
      </trkpt>
      <trkpt lat="43.2182" lon="5.49734">
        <ele>182</ele>
        <time>2021-06-10T09:26:03Z</time>
      </trkpt>
      <trkpt lat="43.21805" lon="5.4974">
        <ele>182</ele>
        <time>2021-06-10T09:26:24Z</time>
      </trkpt>
      <trkpt lat="43.21801" lon="5.49737">
        <ele>181</ele>
        <time>2021-06-10T09:26:30Z</time>
      </trkpt>
      <trkpt lat="43.21801" lon="5.49731">
        <ele>179</ele>
        <time>2021-06-10T09:26:36Z</time>
      </trkpt>
      <trkpt lat="43.21818" lon="5.49712">
        <ele>177</ele>
        <time>2021-06-10T09:27:05Z</time>
      </trkpt>
      <trkpt lat="43.21836" lon="5.49682">
        <ele>171</ele>
        <time>2021-06-10T09:27:43Z</time>
      </trkpt>
      <trkpt lat="43.21847" lon="5.49655">
        <ele>169</ele>
        <time>2021-06-10T09:28:13Z</time>
      </trkpt>
      <trkpt lat="43.21866" lon="5.49627">
        <ele>171</ele>
        <time>2021-06-10T09:28:50Z</time>
      </trkpt>
      <trkpt lat="43.21885" lon="5.49616">
        <ele>173</ele>
        <time>2021-06-10T09:29:18Z</time>
      </trkpt>
      <trkpt lat="43.21887" lon="5.49611">
        <ele>173</ele>
        <time>2021-06-10T09:29:24Z</time>
      </trkpt>
      <trkpt lat="43.21884" lon="5.49604">
        <ele>173</ele>
        <time>2021-06-10T09:29:31Z</time>
      </trkpt>
      <trkpt lat="43.21878" lon="5.49602">
        <ele>173</ele>
        <time>2021-06-10T09:29:40Z</time>
      </trkpt>
      <trkpt lat="43.21848" lon="5.49608">
        <ele>170</ele>
        <time>2021-06-10T09:30:20Z</time>
      </trkpt>
      <trkpt lat="43.21837" lon="5.49615">
        <ele>169</ele>
        <time>2021-06-10T09:30:36Z</time>
      </trkpt>
      <trkpt lat="43.21815" lon="5.49642">
        <ele>167</ele>
        <time>2021-06-10T09:31:16Z</time>
      </trkpt>
      <trkpt lat="43.21809" lon="5.49646">
        <ele>166</ele>
        <time>2021-06-10T09:31:25Z</time>
      </trkpt>
      <trkpt lat="43.21795" lon="5.49647">
        <ele>165</ele>
        <time>2021-06-10T09:31:43Z</time>
      </trkpt>
      <trkpt lat="43.21786" lon="5.49655">
        <ele>164</ele>
        <time>2021-06-10T09:31:58Z</time>
      </trkpt>
      <trkpt lat="43.21773" lon="5.49676">
        <ele>165</ele>
        <time>2021-06-10T09:32:24Z</time>
      </trkpt>
      <trkpt lat="43.21769" lon="5.4968">
        <ele>166</ele>
        <time>2021-06-10T09:32:31Z</time>
      </trkpt>
      <trkpt lat="43.21763" lon="5.49681">
        <ele>165</ele>
        <time>2021-06-10T09:32:39Z</time>
      </trkpt>
      <trkpt lat="43.21754" lon="5.49676">
        <ele>163</ele>
        <time>2021-06-10T09:32:52Z</time>
      </trkpt>
      <trkpt lat="43.21746" lon="5.49662">
        <ele>162</ele>
        <time>2021-06-10T09:33:09Z</time>
      </trkpt>
      <trkpt lat="43.21724" lon="5.49607">
        <ele>162</ele>
        <time>2021-06-10T09:34:10Z</time>
      </trkpt>
      <trkpt lat="43.21712" lon="5.49574">
        <ele>161</ele>
        <time>2021-06-10T09:34:46Z</time>
      </trkpt>
      <trkpt lat="43.21698" lon="5.49546">
        <ele>159</ele>
        <time>2021-06-10T09:35:19Z</time>
      </trkpt>
      <trkpt lat="43.21664" lon="5.49491">
        <ele>150</ele>
        <time>2021-06-10T09:36:29Z</time>
      </trkpt>
      <trkpt lat="43.21649" lon="5.49458">
        <ele>153</ele>
        <time>2021-06-10T09:37:07Z</time>
      </trkpt>
      <trkpt lat="43.21638" lon="5.4945">
        <ele>153</ele>
        <time>2021-06-10T09:37:24Z</time>
      </trkpt>
      <trkpt lat="43.21609" lon="5.49456">
        <ele>150</ele>
        <time>2021-06-10T09:38:03Z</time>
      </trkpt>
      <trkpt lat="43.2159" lon="5.49453">
        <ele>148</ele>
        <time>2021-06-10T09:38:28Z</time>
      </trkpt>
      <trkpt lat="43.21577" lon="5.49444">
        <ele>145</ele>
        <time>2021-06-10T09:38:48Z</time>
      </trkpt>
      <trkpt lat="43.21547" lon="5.49416">
        <ele>137</ele>
        <time>2021-06-10T09:39:36Z</time>
      </trkpt>
      <trkpt lat="43.2153" lon="5.4941">
        <ele>134</ele>
        <time>2021-06-10T09:40:00Z</time>
      </trkpt>
      <trkpt lat="43.21522" lon="5.49412">
        <ele>132</ele>
        <time>2021-06-10T09:40:11Z</time>
      </trkpt>
      <trkpt lat="43.21491" lon="5.49428">
        <ele>132</ele>
        <time>2021-06-10T09:40:55Z</time>
      </trkpt>
      <trkpt lat="43.21485" lon="5.4943">
        <ele>134</ele>
        <time>2021-06-10T09:41:03Z</time>
      </trkpt>
      <trkpt lat="43.21477" lon="5.49437">
        <ele>136</ele>
        <time>2021-06-10T09:41:16Z</time>
      </trkpt>
      <trkpt lat="43.21462" lon="5.49444">
        <ele>139</ele>
        <time>2021-06-10T09:41:37Z</time>
      </trkpt>
      <trkpt lat="43.21452" lon="5.49445">
        <ele>140</ele>
        <time>2021-06-10T09:41:50Z</time>
      </trkpt>
      <trkpt lat="43.21442" lon="5.49451">
        <ele>141</ele>
        <time>2021-06-10T09:42:05Z</time>
      </trkpt>
      <trkpt lat="43.21436" lon="5.49461">
        <ele>141</ele>
        <time>2021-06-10T09:42:17Z</time>
      </trkpt>
      <trkpt lat="43.21433" lon="5.4947">
        <ele>139</ele>
        <time>2021-06-10T09:42:27Z</time>
      </trkpt>
      <trkpt lat="43.21431" lon="5.49481">
        <ele>138</ele>
        <time>2021-06-10T09:42:38Z</time>
      </trkpt>
      <trkpt lat="43.21433" lon="5.49495">
        <ele>135</ele>
        <time>2021-06-10T09:42:52Z</time>
      </trkpt>
      <trkpt lat="43.21442" lon="5.49522">
        <ele>134</ele>
        <time>2021-06-10T09:43:21Z</time>
      </trkpt>
      <trkpt lat="43.21445" lon="5.49544">
        <ele>134</ele>
        <time>2021-06-10T09:43:43Z</time>
      </trkpt>
      <trkpt lat="43.21445" lon="5.49554">
        <ele>134</ele>
        <time>2021-06-10T09:43:52Z</time>
      </trkpt>
      <trkpt lat="43.2144" lon="5.4957">
        <ele>133</ele>
        <time>2021-06-10T09:44:09Z</time>
      </trkpt>
      <trkpt lat="43.21433" lon="5.49575">
        <ele>130</ele>
        <time>2021-06-10T09:44:20Z</time>
      </trkpt>
      <trkpt lat="43.21421" lon="5.49575">
        <ele>126</ele>
        <time>2021-06-10T09:44:36Z</time>
      </trkpt>
      <trkpt lat="43.21403" lon="5.49565">
        <ele>128</ele>
        <time>2021-06-10T09:45:02Z</time>
      </trkpt>
      <trkpt lat="43.21396" lon="5.49566">
        <ele>129</ele>
        <time>2021-06-10T09:45:11Z</time>
      </trkpt>
      <trkpt lat="43.21385" lon="5.49573">
        <ele>130</ele>
        <time>2021-06-10T09:45:27Z</time>
      </trkpt>
      <trkpt lat="43.21379" lon="5.49579">
        <ele>130</ele>
        <time>2021-06-10T09:45:37Z</time>
      </trkpt>
      <trkpt lat="43.21369" lon="5.49611">
        <ele>129</ele>
        <time>2021-06-10T09:46:11Z</time>
      </trkpt>
      <trkpt lat="43.2137" lon="5.49622">
        <ele>129</ele>
        <time>2021-06-10T09:46:22Z</time>
      </trkpt>
      <trkpt lat="43.21388" lon="5.4967">
        <ele>127</ele>
        <time>2021-06-10T09:47:14Z</time>
      </trkpt>
      <trkpt lat="43.21395" lon="5.49701">
        <ele>126</ele>
        <time>2021-06-10T09:47:46Z</time>
      </trkpt>
      <trkpt lat="43.21397" lon="5.49738">
        <ele>124</ele>
        <time>2021-06-10T09:48:22Z</time>
      </trkpt>
      <trkpt lat="43.21394" lon="5.49755">
        <ele>124</ele>
        <time>2021-06-10T09:48:39Z</time>
      </trkpt>
      <trkpt lat="43.21381" lon="5.49765">
        <ele>123</ele>
        <time>2021-06-10T09:48:59Z</time>
      </trkpt>
      <trkpt lat="43.21353" lon="5.49764">
        <ele>119</ele>
        <time>2021-06-10T09:49:36Z</time>
      </trkpt>
      <trkpt lat="43.21344" lon="5.49765">
        <ele>118</ele>
        <time>2021-06-10T09:49:48Z</time>
      </trkpt>
      <trkpt lat="43.21334" lon="5.4977">
        <ele>117</ele>
        <time>2021-06-10T09:50:02Z</time>
      </trkpt>
      <trkpt lat="43.21321" lon="5.49784">
        <ele>116</ele>
        <time>2021-06-10T09:50:25Z</time>
      </trkpt>
      <trkpt lat="43.21312" lon="5.4979">
        <ele>115</ele>
        <time>2021-06-10T09:50:38Z</time>
      </trkpt>
      <trkpt lat="43.2126" lon="5.498">
        <ele>108</ele>
        <time>2021-06-10T09:51:48Z</time>
      </trkpt>
      <trkpt lat="43.21245" lon="5.49796">
        <ele>106</ele>
        <time>2021-06-10T09:52:08Z</time>
      </trkpt>
      <trkpt lat="43.21233" lon="5.49791">
        <ele>103</ele>
        <time>2021-06-10T09:52:25Z</time>
      </trkpt>
      <trkpt lat="43.2121" lon="5.4976">
        <ele>97</ele>
        <time>2021-06-10T09:53:08Z</time>
      </trkpt>
      <trkpt lat="43.21202" lon="5.49741">
        <ele>95</ele>
        <time>2021-06-10T09:53:29Z</time>
      </trkpt>
      <trkpt lat="43.21203" lon="5.49727">
        <ele>97</ele>
        <time>2021-06-10T09:53:43Z</time>
      </trkpt>
      <trkpt lat="43.21218" lon="5.49699">
        <ele>104</ele>
        <time>2021-06-10T09:54:17Z</time>
      </trkpt>
      <trkpt lat="43.21219" lon="5.49691">
        <ele>105</ele>
        <time>2021-06-10T09:54:25Z</time>
      </trkpt>
      <trkpt lat="43.21218" lon="5.49682">
        <ele>106</ele>
        <time>2021-06-10T09:54:34Z</time>
      </trkpt>
      <trkpt lat="43.21215" lon="5.49673">
        <ele>106</ele>
        <time>2021-06-10T09:54:43Z</time>
      </trkpt>
      <trkpt lat="43.21208" lon="5.49659">
        <ele>107</ele>
        <time>2021-06-10T09:55:00Z</time>
      </trkpt>
      <trkpt lat="43.21194" lon="5.49647">
        <ele>106</ele>
        <time>2021-06-10T09:55:22Z</time>
      </trkpt>
      <trkpt lat="43.21186" lon="5.49649">
        <ele>104</ele>
        <time>2021-06-10T09:55:33Z</time>
      </trkpt>
      <trkpt lat="43.21177" lon="5.49653">
        <ele>100</ele>
        <time>2021-06-10T09:55:45Z</time>
      </trkpt>
      <trkpt lat="43.21151" lon="5.49687">
        <ele>92</ele>
        <time>2021-06-10T09:56:33Z</time>
      </trkpt>
      <trkpt lat="43.2114" lon="5.49709">
        <ele>92</ele>
        <time>2021-06-10T09:56:59Z</time>
      </trkpt>
      <trkpt lat="43.21121" lon="5.49722">
        <ele>94</ele>
        <time>2021-06-10T09:57:28Z</time>
      </trkpt>
      <trkpt lat="43.21102" lon="5.49715">
        <ele>96</ele>
        <time>2021-06-10T09:57:54Z</time>
      </trkpt>
      <trkpt lat="43.21097" lon="5.49712">
        <ele>96</ele>
        <time>2021-06-10T09:58:01Z</time>
      </trkpt>
      <trkpt lat="43.21083" lon="5.49689">
        <ele>95</ele>
        <time>2021-06-10T09:58:30Z</time>
      </trkpt>
      <trkpt lat="43.21071" lon="5.49683">
        <ele>96</ele>
        <time>2021-06-10T09:58:47Z</time>
      </trkpt>
      <trkpt lat="43.21058" lon="5.49674">
        <ele>97</ele>
        <time>2021-06-10T09:59:07Z</time>
      </trkpt>
      <trkpt lat="43.21038" lon="5.49664">
        <ele>100</ele>
        <time>2021-06-10T09:59:35Z</time>
      </trkpt>
      <trkpt lat="43.2103" lon="5.49663">
        <ele>101</ele>
        <time>2021-06-10T09:59:46Z</time>
      </trkpt>
      <trkpt lat="43.21022" lon="5.49667">
        <ele>101</ele>
        <time>2021-06-10T09:59:57Z</time>
      </trkpt>
      <trkpt lat="43.21007" lon="5.49681">
        <ele>105</ele>
        <time>2021-06-10T10:00:21Z</time>
      </trkpt>
      <trkpt lat="43.20993" lon="5.49691">
        <ele>106</ele>
        <time>2021-06-10T10:00:42Z</time>
      </trkpt>
      <trkpt lat="43.20982" lon="5.49695">
        <ele>105</ele>
        <time>2021-06-10T10:00:58Z</time>
      </trkpt>
      <trkpt lat="43.20944" lon="5.49695">
        <ele>101</ele>
        <time>2021-06-10T10:01:48Z</time>
      </trkpt>
      <trkpt lat="43.20919" lon="5.49703">
        <ele>98</ele>
        <time>2021-06-10T10:02:23Z</time>
      </trkpt>
      <trkpt lat="43.20902" lon="5.49705">
        <ele>97</ele>
        <time>2021-06-10T10:02:45Z</time>
      </trkpt>
      <trkpt lat="43.20882" lon="5.4971">
        <ele>95</ele>
        <time>2021-06-10T10:03:13Z</time>
      </trkpt>
      <trkpt lat="43.20846" lon="5.49729">
        <ele>83</ele>
        <time>2021-06-10T10:04:04Z</time>
      </trkpt>
      <trkpt lat="43.20814" lon="5.4975">
        <ele>72</ele>
        <time>2021-06-10T10:04:51Z</time>
      </trkpt>
      <trkpt lat="43.20722" lon="5.49833">
        <ele>66</ele>
        <time>2021-06-10T10:07:18Z</time>
      </trkpt>
      <trkpt lat="43.20682" lon="5.49862">
        <ele>57</ele>
        <time>2021-06-10T10:08:19Z</time>
      </trkpt>
      <trkpt lat="43.20662" lon="5.49894">
        <ele>55</ele>
        <time>2021-06-10T10:09:00Z</time>
      </trkpt>
      <trkpt lat="43.20635" lon="5.49911">
        <ele>63</ele>
        <time>2021-06-10T10:09:39Z</time>
      </trkpt>
      <trkpt lat="43.20628" lon="5.49913">
        <ele>65</ele>
        <time>2021-06-10T10:09:49Z</time>
      </trkpt>
      <trkpt lat="43.20614" lon="5.49907">
        <ele>67</ele>
        <time>2021-06-10T10:10:08Z</time>
      </trkpt>
      <trkpt lat="43.20614" lon="5.49915">
        <ele>68</ele>
        <time>2021-06-10T10:10:16Z</time>
      </trkpt>
      <trkpt lat="43.20625" lon="5.49937">
        <ele>71</ele>
        <time>2021-06-10T10:10:42Z</time>
      </trkpt>
      <trkpt lat="43.20634" lon="5.49984">
        <ele>81</ele>
        <time>2021-06-10T10:11:29Z</time>
      </trkpt>
      <trkpt lat="43.2064" lon="5.49998">
        <ele>83</ele>
        <time>2021-06-10T10:11:45Z</time>
      </trkpt>
      <trkpt lat="43.20656" lon="5.50018">
        <ele>86</ele>
        <time>2021-06-10T10:12:14Z</time>
      </trkpt>
      <trkpt lat="43.20672" lon="5.50052">
        <ele>95</ele>
        <time>2021-06-10T10:12:53Z</time>
      </trkpt>
      <trkpt lat="43.20689" lon="5.5007">
        <ele>104</ele>
        <time>2021-06-10T10:13:22Z</time>
      </trkpt>
      <trkpt lat="43.20689" lon="5.50072">
        <ele>104</ele>
        <time>2021-06-10T10:13:24Z</time>
      </trkpt>
      <trkpt lat="43.20687" lon="5.50084">
        <ele>106</ele>
        <time>2021-06-10T10:13:36Z</time>
      </trkpt>
      <trkpt lat="43.20683" lon="5.50094">
        <ele>108</ele>
        <time>2021-06-10T10:13:47Z</time>
      </trkpt>
      <trkpt lat="43.20671" lon="5.50105">
        <ele>109</ele>
        <time>2021-06-10T10:14:06Z</time>
      </trkpt>
      <trkpt lat="43.20666" lon="5.50114">
        <ele>111</ele>
        <time>2021-06-10T10:14:17Z</time>
      </trkpt>
      <trkpt lat="43.20669" lon="5.50125">
        <ele>114</ele>
        <time>2021-06-10T10:14:29Z</time>
      </trkpt>
      <trkpt lat="43.20669" lon="5.50135">
        <ele>118</ele>
        <time>2021-06-10T10:14:39Z</time>
      </trkpt>
      <trkpt lat="43.20664" lon="5.50145">
        <ele>121</ele>
        <time>2021-06-10T10:14:50Z</time>
      </trkpt>
      <trkpt lat="43.20654" lon="5.50144">
        <ele>122</ele>
        <time>2021-06-10T10:15:04Z</time>
      </trkpt>
      <trkpt lat="43.20647" lon="5.50152">
        <ele>125</ele>
        <time>2021-06-10T10:15:16Z</time>
      </trkpt>
      <trkpt lat="43.20641" lon="5.50156">
        <ele>127</ele>
        <time>2021-06-10T10:15:25Z</time>
      </trkpt>
      <trkpt lat="43.20642" lon="5.50167">
        <ele>130</ele>
        <time>2021-06-10T10:15:36Z</time>
      </trkpt>
      <trkpt lat="43.20635" lon="5.50179">
        <ele>132</ele>
        <time>2021-06-10T10:15:50Z</time>
      </trkpt>
      <trkpt lat="43.20632" lon="5.50187">
        <ele>132</ele>
        <time>2021-06-10T10:15:59Z</time>
      </trkpt>
      <trkpt lat="43.20625" lon="5.50205">
        <ele>134</ele>
        <time>2021-06-10T10:16:19Z</time>
      </trkpt>
      <trkpt lat="43.20624" lon="5.50218">
        <ele>134</ele>
        <time>2021-06-10T10:16:32Z</time>
      </trkpt>
      <trkpt lat="43.20621" lon="5.50226">
        <ele>135</ele>
        <time>2021-06-10T10:16:41Z</time>
      </trkpt>
      <trkpt lat="43.2062" lon="5.50231">
        <ele>135</ele>
        <time>2021-06-10T10:16:46Z</time>
      </trkpt>
      <trkpt lat="43.20622" lon="5.50236">
        <ele>135</ele>
        <time>2021-06-10T10:16:51Z</time>
      </trkpt>
      <trkpt lat="43.20622" lon="5.50243">
        <ele>135</ele>
        <time>2021-06-10T10:16:58Z</time>
      </trkpt>
      <trkpt lat="43.20613" lon="5.50256">
        <ele>134</ele>
        <time>2021-06-10T10:17:15Z</time>
      </trkpt>
      <trkpt lat="43.20602" lon="5.50265">
        <ele>133</ele>
        <time>2021-06-10T10:17:32Z</time>
      </trkpt>
      <trkpt lat="43.20598" lon="5.50277">
        <ele>131</ele>
        <time>2021-06-10T10:17:45Z</time>
      </trkpt>
      <trkpt lat="43.20586" lon="5.5033">
        <ele>121</ele>
        <time>2021-06-10T10:18:39Z</time>
      </trkpt>
      <trkpt lat="43.20583" lon="5.50353">
        <ele>116</ele>
        <time>2021-06-10T10:19:02Z</time>
      </trkpt>
      <trkpt lat="43.20584" lon="5.50373">
        <ele>112</ele>
        <time>2021-06-10T10:19:22Z</time>
      </trkpt>
      <trkpt lat="43.20566" lon="5.50431">
        <ele>105</ele>
        <time>2021-06-10T10:20:23Z</time>
      </trkpt>
      <trkpt lat="43.2055" lon="5.50455">
        <ele>104</ele>
        <time>2021-06-10T10:20:54Z</time>
      </trkpt>
      <trkpt lat="43.20535" lon="5.50482">
        <ele>101</ele>
        <time>2021-06-10T10:21:27Z</time>
      </trkpt>
      <trkpt lat="43.20522" lon="5.50501">
        <ele>97</ele>
        <time>2021-06-10T10:21:53Z</time>
      </trkpt>
      <trkpt lat="43.20512" lon="5.5051">
        <ele>96</ele>
        <time>2021-06-10T10:22:09Z</time>
      </trkpt>
      <trkpt lat="43.20514" lon="5.50515">
        <ele>95</ele>
        <time>2021-06-10T10:22:14Z</time>
      </trkpt>
      <trkpt lat="43.20512" lon="5.50534">
        <ele>91</ele>
        <time>2021-06-10T10:22:33Z</time>
      </trkpt>
      <trkpt lat="43.20495" lon="5.50567">
        <ele>85</ele>
        <time>2021-06-10T10:23:12Z</time>
      </trkpt>
      <trkpt lat="43.20494" lon="5.50576">
        <ele>83</ele>
        <time>2021-06-10T10:23:21Z</time>
      </trkpt>
      <trkpt lat="43.20491" lon="5.50582">
        <ele>83</ele>
        <time>2021-06-10T10:23:28Z</time>
      </trkpt>
      <trkpt lat="43.20479" lon="5.506">
        <ele>82</ele>
        <time>2021-06-10T10:23:52Z</time>
      </trkpt>
      <trkpt lat="43.20474" lon="5.5061">
        <ele>82</ele>
        <time>2021-06-10T10:24:04Z</time>
      </trkpt>
      <trkpt lat="43.20463" lon="5.50653">
        <ele>77</ele>
        <time>2021-06-10T10:24:48Z</time>
      </trkpt>
      <trkpt lat="43.20457" lon="5.50666">
        <ele>75</ele>
        <time>2021-06-10T10:25:03Z</time>
      </trkpt>
      <trkpt lat="43.20454" lon="5.50684">
        <ele>72</ele>
        <time>2021-06-10T10:25:21Z</time>
      </trkpt>
      <trkpt lat="43.2045" lon="5.50688">
        <ele>71</ele>
        <time>2021-06-10T10:25:28Z</time>
      </trkpt>
      <trkpt lat="43.20447" lon="5.50694">
        <ele>70</ele>
        <time>2021-06-10T10:25:35Z</time>
      </trkpt>
      <trkpt lat="43.20443" lon="5.50713">
        <ele>67</ele>
        <time>2021-06-10T10:25:54Z</time>
      </trkpt>
      <trkpt lat="43.2044" lon="5.50739">
        <ele>62</ele>
        <time>2021-06-10T10:26:20Z</time>
      </trkpt>
      <trkpt lat="43.2044" lon="5.50785">
        <ele>53</ele>
        <time>2021-06-10T10:27:04Z</time>
      </trkpt>
      <trkpt lat="43.20442" lon="5.50794">
        <ele>51</ele>
        <time>2021-06-10T10:27:13Z</time>
      </trkpt>
      <trkpt lat="43.20441" lon="5.50802">
        <ele>49</ele>
        <time>2021-06-10T10:27:21Z</time>
      </trkpt>
      <trkpt lat="43.2043" lon="5.5083">
        <ele>43</ele>
        <time>2021-06-10T10:27:52Z</time>
      </trkpt>
      <trkpt lat="43.20432" lon="5.50843">
        <ele>41</ele>
        <time>2021-06-10T10:28:05Z</time>
      </trkpt>
      <trkpt lat="43.20429" lon="5.50854">
        <ele>40</ele>
        <time>2021-06-10T10:28:17Z</time>
      </trkpt>
      <trkpt lat="43.2042" lon="5.50864">
        <ele>38</ele>
        <time>2021-06-10T10:28:32Z</time>
      </trkpt>
      <trkpt lat="43.20408" lon="5.50892">
        <ele>35</ele>
        <time>2021-06-10T10:29:04Z</time>
      </trkpt>
      <trkpt lat="43.20409" lon="5.50905">
        <ele>33</ele>
        <time>2021-06-10T10:29:16Z</time>
      </trkpt>
      <trkpt lat="43.20415" lon="5.5094">
        <ele>28</ele>
        <time>2021-06-10T10:29:51Z</time>
      </trkpt>
      <trkpt lat="43.20414" lon="5.50962">
        <ele>25</ele>
        <time>2021-06-10T10:30:13Z</time>
      </trkpt>
      <trkpt lat="43.20417" lon="5.50982">
        <ele>22</ele>
        <time>2021-06-10T10:30:33Z</time>
      </trkpt>
      <trkpt lat="43.20416" lon="5.51009">
        <ele>19</ele>
        <time>2021-06-10T10:30:59Z</time>
      </trkpt>
      <trkpt lat="43.20414" lon="5.51023">
        <ele>18</ele>
        <time>2021-06-10T10:31:13Z</time>
      </trkpt>
      <trkpt lat="43.20409" lon="5.5103">
        <ele>17</ele>
        <time>2021-06-10T10:31:22Z</time>
      </trkpt>
      <trkpt lat="43.20404" lon="5.51025">
        <ele>18</ele>
        <time>2021-06-10T10:31:31Z</time>
      </trkpt>
      <trkpt lat="43.20409" lon="5.5103">
        <ele>17</ele>
        <time>2021-06-10T10:31:39Z</time>
      </trkpt>
      <trkpt lat="43.20405" lon="5.51057">
        <ele>16</ele>
        <time>2021-06-10T10:32:06Z</time>
      </trkpt>
      <trkpt lat="43.20417" lon="5.51072">
        <ele>16</ele>
        <time>2021-06-10T10:32:27Z</time>
      </trkpt>
      <trkpt lat="43.20412" lon="5.51078">
        <ele>15</ele>
        <time>2021-06-10T10:32:36Z</time>
      </trkpt>
      <trkpt lat="43.20414" lon="5.51086">
        <ele>15</ele>
        <time>2021-06-10T10:32:44Z</time>
      </trkpt>
      <trkpt lat="43.20419" lon="5.51091">
        <ele>16</ele>
        <time>2021-06-10T10:32:53Z</time>
      </trkpt>
      <trkpt lat="43.20429" lon="5.51122">
        <ele>20</ele>
        <time>2021-06-10T10:33:26Z</time>
      </trkpt>
      <trkpt lat="43.20445" lon="5.51161">
        <ele>27</ele>
        <time>2021-06-10T10:34:09Z</time>
      </trkpt>
      <trkpt lat="43.2049" lon="5.51158">
        <ele>32</ele>
        <time>2021-06-10T10:35:09Z</time>
      </trkpt>
      <trkpt lat="43.2052" lon="5.51163">
        <ele>37</ele>
        <time>2021-06-10T10:35:50Z</time>
      </trkpt>
      <trkpt lat="43.20533" lon="5.51162">
        <ele>39</ele>
        <time>2021-06-10T10:36:07Z</time>
      </trkpt>
      <trkpt lat="43.20546" lon="5.51182">
        <ele>41</ele>
        <time>2021-06-10T10:36:33Z</time>
      </trkpt>
      <trkpt lat="43.20564" lon="5.51192">
        <ele>44</ele>
        <time>2021-06-10T10:36:59Z</time>
      </trkpt>
      <trkpt lat="43.20586" lon="5.51227">
        <ele>47</ele>
        <time>2021-06-10T10:37:44Z</time>
      </trkpt>
      <trkpt lat="43.20591" lon="5.51251">
        <ele>47</ele>
        <time>2021-06-10T10:38:08Z</time>
      </trkpt>
      <trkpt lat="43.20599" lon="5.51271">
        <ele>47</ele>
        <time>2021-06-10T10:38:30Z</time>
      </trkpt>
      <trkpt lat="43.20599" lon="5.51305">
        <ele>44</ele>
        <time>2021-06-10T10:39:04Z</time>
      </trkpt>
      <trkpt lat="43.20583" lon="5.51334">
        <ele>38</ele>
        <time>2021-06-10T10:39:39Z</time>
      </trkpt>
      <trkpt lat="43.20582" lon="5.51344">
        <ele>36</ele>
        <time>2021-06-10T10:39:49Z</time>
      </trkpt>
      <trkpt lat="43.2058" lon="5.51354">
        <ele>34</ele>
        <time>2021-06-10T10:39:59Z</time>
      </trkpt>
      <trkpt lat="43.20581" lon="5.51366">
        <ele>32</ele>
        <time>2021-06-10T10:40:11Z</time>
      </trkpt>
      <trkpt lat="43.20594" lon="5.514">
        <ele>30</ele>
        <time>2021-06-10T10:40:48Z</time>
      </trkpt>
      <trkpt lat="43.20618" lon="5.5143">
        <ele>29</ele>
        <time>2021-06-10T10:41:31Z</time>
      </trkpt>
      <trkpt lat="43.20645" lon="5.51456">
        <ele>26</ele>
        <time>2021-06-10T10:42:15Z</time>
      </trkpt>
      <trkpt lat="43.20665" lon="5.51467">
        <ele>24</ele>
        <time>2021-06-10T10:42:44Z</time>
      </trkpt>
      <trkpt lat="43.20696" lon="5.51476">
        <ele>26</ele>
        <time>2021-06-10T10:43:26Z</time>
      </trkpt>
      <trkpt lat="43.20726" lon="5.51492">
        <ele>24</ele>
        <time>2021-06-10T10:44:09Z</time>
      </trkpt>
      <trkpt lat="43.20738" lon="5.51507">
        <ele>21</ele>
        <time>2021-06-10T10:44:31Z</time>
      </trkpt>
      <trkpt lat="43.20789" lon="5.516">
        <ele>15</ele>
        <time>2021-06-10T10:46:24Z</time>
      </trkpt>
      <trkpt lat="43.20897" lon="5.51777">
        <ele>13</ele>
        <time>2021-06-10T10:50:09Z</time>
      </trkpt>
      <trkpt lat="43.20903" lon="5.51776">
        <ele>14</ele>
        <time>2021-06-10T10:50:17Z</time>
      </trkpt>
      <trkpt lat="43.21002" lon="5.51919">
        <ele>20</ele>
        <time>2021-06-10T10:53:29Z</time>
      </trkpt>
      <trkpt lat="43.21022" lon="5.51954">
        <ele>21</ele>
        <time>2021-06-10T10:54:12Z</time>
      </trkpt>
      <trkpt lat="43.2104" lon="5.51976">
        <ele>22</ele>
        <time>2021-06-10T10:54:44Z</time>
      </trkpt>
      <trkpt lat="43.2111" lon="5.52039">
        <ele>26</ele>
        <time>2021-06-10T10:56:36Z</time>
      </trkpt>
      <trkpt lat="43.21132" lon="5.52075">
        <ele>22</ele>
        <time>2021-06-10T10:57:21Z</time>
      </trkpt>
      <trkpt lat="43.21154" lon="5.52096">
        <ele>24</ele>
        <time>2021-06-10T10:57:57Z</time>
      </trkpt>
      <trkpt lat="43.2119" lon="5.52164">
        <ele>25</ele>
        <time>2021-06-10T10:59:19Z</time>
      </trkpt>
      <trkpt lat="43.21213" lon="5.52187">
        <ele>30</ele>
        <time>2021-06-10T10:59:57Z</time>
      </trkpt>
      <trkpt lat="43.21216" lon="5.52198">
        <ele>30</ele>
        <time>2021-06-10T11:00:08Z</time>
      </trkpt>
      <trkpt lat="43.21216" lon="5.52208">
        <ele>30</ele>
        <time>2021-06-10T11:00:18Z</time>
      </trkpt>
      <trkpt lat="43.21212" lon="5.52207">
        <ele>30</ele>
        <time>2021-06-10T11:00:23Z</time>
      </trkpt>
      <trkpt lat="43.21199" lon="5.52216">
        <ele>29</ele>
        <time>2021-06-10T11:00:43Z</time>
      </trkpt>
      <trkpt lat="43.2119" lon="5.52216">
        <ele>28</ele>
        <time>2021-06-10T11:00:55Z</time>
      </trkpt>
      <trkpt lat="43.21162" lon="5.52205">
        <ele>25</ele>
        <time>2021-06-10T11:01:34Z</time>
      </trkpt>
      <trkpt lat="43.21154" lon="5.52204">
        <ele>25</ele>
        <time>2021-06-10T11:01:44Z</time>
      </trkpt>
      <trkpt lat="43.21149" lon="5.52209">
        <ele>26</ele>
        <time>2021-06-10T11:01:53Z</time>
      </trkpt>
      <trkpt lat="43.21146" lon="5.52219">
        <ele>28</ele>
        <time>2021-06-10T11:02:03Z</time>
      </trkpt>
      <trkpt lat="43.21142" lon="5.52253">
        <ele>35</ele>
        <time>2021-06-10T11:02:37Z</time>
      </trkpt>
      <trkpt lat="43.21139" lon="5.52254">
        <ele>35</ele>
        <time>2021-06-10T11:02:41Z</time>
      </trkpt>
      <trkpt lat="43.21137" lon="5.52258">
        <ele>36</ele>
        <time>2021-06-10T11:02:46Z</time>
      </trkpt>
      <trkpt lat="43.21132" lon="5.52255">
        <ele>36</ele>
        <time>2021-06-10T11:02:53Z</time>
      </trkpt>
      <trkpt lat="43.21128" lon="5.52256">
        <ele>36</ele>
        <time>2021-06-10T11:02:58Z</time>
      </trkpt>
      <trkpt lat="43.21128" lon="5.52262">
        <ele>37</ele>
        <time>2021-06-10T11:03:04Z</time>
      </trkpt>
      <trkpt lat="43.21125" lon="5.52268">
        <ele>39</ele>
        <time>2021-06-10T11:03:11Z</time>
      </trkpt>
      <trkpt lat="43.21119" lon="5.52269">
        <ele>39</ele>
        <time>2021-06-10T11:03:19Z</time>
      </trkpt>
      <trkpt lat="43.21117" lon="5.52272">
        <ele>40</ele>
        <time>2021-06-10T11:03:23Z</time>
      </trkpt>
      <trkpt lat="43.21105" lon="5.52276">
        <ele>41</ele>
        <time>2021-06-10T11:03:40Z</time>
      </trkpt>
      <trkpt lat="43.21104" lon="5.52283">
        <ele>43</ele>
        <time>2021-06-10T11:03:47Z</time>
      </trkpt>
      <trkpt lat="43.21097" lon="5.52297">
        <ele>45</ele>
        <time>2021-06-10T11:04:03Z</time>
      </trkpt>
      <trkpt lat="43.21094" lon="5.5231">
        <ele>47</ele>
        <time>2021-06-10T11:04:16Z</time>
      </trkpt>
      <trkpt lat="43.2109" lon="5.52311">
        <ele>48</ele>
        <time>2021-06-10T11:04:22Z</time>
      </trkpt>
      <trkpt lat="43.21086" lon="5.52309">
        <ele>47</ele>
        <time>2021-06-10T11:04:28Z</time>
      </trkpt>
      <trkpt lat="43.21077" lon="5.52293">
        <ele>46</ele>
        <time>2021-06-10T11:04:47Z</time>
      </trkpt>
      <trkpt lat="43.21072" lon="5.5229">
        <ele>45</ele>
        <time>2021-06-10T11:04:54Z</time>
      </trkpt>
      <trkpt lat="43.21045" lon="5.52312">
        <ele>49</ele>
        <time>2021-06-10T11:05:36Z</time>
      </trkpt>
      <trkpt lat="43.21041" lon="5.52312">
        <ele>49</ele>
        <time>2021-06-10T11:05:42Z</time>
      </trkpt>
      <trkpt lat="43.20956" lon="5.5216">
        <ele>43</ele>
        <time>2021-06-10T11:08:48Z</time>
      </trkpt>
      <trkpt lat="43.20943" lon="5.52144">
        <ele>42</ele>
        <time>2021-06-10T11:09:11Z</time>
      </trkpt>
      <trkpt lat="43.20927" lon="5.52129">
        <ele>43</ele>
        <time>2021-06-10T11:09:37Z</time>
      </trkpt>
      <trkpt lat="43.20881" lon="5.52087">
        <ele>39</ele>
        <time>2021-06-10T11:10:51Z</time>
      </trkpt>
      <trkpt lat="43.20787" lon="5.51981">
        <ele>25</ele>
        <time>2021-06-10T11:13:33Z</time>
      </trkpt>
      <trkpt lat="43.20753" lon="5.51946">
        <ele>26</ele>
        <time>2021-06-10T11:14:30Z</time>
      </trkpt>
      <trkpt lat="43.20677" lon="5.51861">
        <ele>25</ele>
        <time>2021-06-10T11:16:41Z</time>
      </trkpt>
      <trkpt lat="43.20663" lon="5.5185">
        <ele>25</ele>
        <time>2021-06-10T11:17:02Z</time>
      </trkpt>
      <trkpt lat="43.20657" lon="5.51851">
        <ele>25</ele>
        <time>2021-06-10T11:17:10Z</time>
      </trkpt>
      <trkpt lat="43.20649" lon="5.51856">
        <ele>24</ele>
        <time>2021-06-10T11:17:22Z</time>
      </trkpt>
      <trkpt lat="43.20644" lon="5.51867">
        <ele>24</ele>
        <time>2021-06-10T11:17:35Z</time>
      </trkpt>
      <trkpt lat="43.20636" lon="5.51899">
        <ele>24</ele>
        <time>2021-06-10T11:18:08Z</time>
      </trkpt>
      <trkpt lat="43.20626" lon="5.51922">
        <ele>23</ele>
        <time>2021-06-10T11:18:34Z</time>
      </trkpt>
    </trkseg>
  </trk>
</gpx>